createdAt,value
2017-03-19T00:01:08.651Z,9.08
2017-03-19T00:02:20.090Z,9.19
2017-03-19T00:03:31.190Z,9.17
2017-03-19T00:04:42.226Z,9.17
2017-03-19T00:05:53.258Z,9.17
2017-03-19T00:07:04.285Z,9.14
2017-03-19T00:08:15.313Z,9.11
2017-03-19T00:09:26.745Z,9.09
2017-03-19T00:10:37.771Z,9.11
2017-03-19T00:11:48.803Z,9.11
2017-03-19T00:12:59.832Z,9.05
2017-03-19T00:14:11.125Z,9.16
2017-03-19T00:15:22.354Z,9.19
2017-03-19T00:16:33.374Z,9.09
2017-03-19T00:17:44.606Z,9.11
2017-03-19T00:18:55.638Z,9.3
2017-03-19T00:20:06.668Z,9.3
2017-03-19T00:21:17.703Z,9.27
2017-03-19T00:22:28.932Z,9.34
2017-03-19T00:23:39.970Z,9.37
2017-03-19T00:24:51.253Z,9.32
2017-03-19T00:26:02.278Z,9.29
2017-03-19T00:27:13.302Z,9.32
2017-03-19T00:28:24.536Z,9.3
2017-03-19T00:29:35.772Z,9.32
2017-03-19T00:30:47.001Z,9.34
2017-03-19T00:31:58.027Z,9.29
2017-03-19T00:33:09.087Z,9.39
2017-03-19T00:34:20.112Z,9.38
2017-03-19T00:35:31.149Z,9.35
2017-03-19T00:36:42.166Z,9.41
2017-03-19T00:37:53.222Z,9.44
2017-03-19T00:39:04.281Z,9.42
2017-03-19T00:40:15.310Z,9.39
2017-03-19T00:41:26.341Z,9.5
2017-03-19T00:42:37.365Z,9.42
2017-03-19T00:43:48.400Z,9.37
2017-03-19T00:44:59.441Z,9.41
2017-03-19T00:46:10.549Z,9.39
2017-03-19T00:47:21.584Z,9.39
2017-03-19T00:48:32.622Z,9.39
2017-03-19T00:49:43.661Z,9.37
2017-03-19T00:50:54.692Z,9.34
2017-03-19T00:52:05.715Z,9.37
2017-03-19T00:53:16.776Z,9.47
2017-03-19T00:54:27.811Z,9.47
2017-03-19T00:55:39.052Z,9.47
2017-03-19T00:56:50.119Z,9.41
2017-03-19T00:58:01.165Z,9.39
2017-03-19T00:59:12.202Z,9.3
2017-03-19T01:00:23.241Z,9.32
2017-03-19T01:01:34.269Z,9.29
2017-03-19T01:02:45.552Z,9.34
2017-03-19T01:03:56.596Z,9.35
2017-03-19T01:05:07.623Z,9.34
2017-03-19T01:06:18.655Z,9.27
2017-03-19T01:07:29.936Z,9.23
2017-03-19T01:08:41.000Z,9.21
2017-03-19T01:09:52.034Z,9.21
2017-03-19T01:11:03.059Z,9.2
2017-03-19T01:12:14.083Z,9.17
2017-03-19T01:13:25.318Z,9.23
2017-03-19T01:14:36.345Z,9.32
2017-03-19T01:15:47.378Z,9.32
2017-03-19T01:16:58.401Z,9.29
2017-03-19T01:18:09.490Z,9.21
2017-03-19T01:19:20.534Z,9.27
2017-03-19T01:20:31.566Z,9.19
2017-03-19T01:21:42.603Z,9.14
2017-03-19T01:22:53.633Z,9.17
2017-03-19T01:24:04.674Z,9.12
2017-03-19T01:25:15.722Z,9.19
2017-03-19T01:26:26.742Z,9.19
2017-03-19T01:27:37.772Z,9.17
2017-03-19T01:28:49.004Z,9.17
2017-03-19T01:30:00.285Z,9.11
2017-03-19T01:31:11.318Z,9.14
2017-03-19T01:32:22.343Z,9.08
2017-03-19T01:33:33.407Z,9.05
2017-03-19T01:34:44.439Z,8.97
2017-03-19T01:35:55.654Z,8.97
2017-03-19T01:37:06.880Z,9.03
2017-03-19T01:38:17.909Z,9.01
2017-03-19T01:39:29.187Z,8.98
2017-03-19T01:40:40.215Z,8.9
2017-03-19T01:41:51.236Z,9.03
2017-03-19T01:43:02.468Z,9.01
2017-03-19T01:44:13.507Z,9.03
2017-03-19T01:45:24.540Z,8.98
2017-03-19T01:46:35.569Z,9.03
2017-03-19T01:47:46.606Z,8.97
2017-03-19T01:48:57.652Z,9.17
2017-03-19T01:50:08.737Z,9.04
2017-03-19T01:51:20.159Z,9.09
2017-03-19T01:52:31.185Z,9.14
2017-03-19T01:53:42.217Z,9.19
2017-03-19T01:54:53.483Z,9.14
2017-03-19T01:56:04.516Z,9.11
2017-03-19T01:57:15.541Z,9.11
2017-03-19T01:58:26.572Z,9.08
2017-03-19T01:59:38.009Z,8.97
2017-03-19T02:00:49.089Z,9.03
2017-03-19T02:02:00.120Z,9
2017-03-19T02:03:11.152Z,8.98
2017-03-19T02:04:22.185Z,8.95
2017-03-19T02:05:33.213Z,8.87
2017-03-19T02:06:44.502Z,8.95
2017-03-19T02:07:55.734Z,8.9
2017-03-19T02:09:06.963Z,8.85
2017-03-19T02:10:17.992Z,8.92
2017-03-19T02:11:29.012Z,8.94
2017-03-19T02:12:40.046Z,8.89
2017-03-19T02:13:51.081Z,8.98
2017-03-19T02:15:02.162Z,8.89
2017-03-19T02:16:13.219Z,8.79
2017-03-19T02:17:24.252Z,8.86
2017-03-19T02:18:35.340Z,8.89
2017-03-19T02:19:46.377Z,8.89
2017-03-19T02:20:57.603Z,8.95
2017-03-19T02:22:08.626Z,8.9
2017-03-19T02:23:19.649Z,8.94
2017-03-19T02:24:30.886Z,8.87
2017-03-19T02:25:42.110Z,8.9
2017-03-19T02:26:53.130Z,8.86
2017-03-19T02:28:04.203Z,8.92
2017-03-19T02:29:15.235Z,8.9
2017-03-19T02:30:26.270Z,8.86
2017-03-19T02:31:37.294Z,8.9
2017-03-19T02:32:48.321Z,8.89
2017-03-19T02:33:59.344Z,8.87
2017-03-19T02:35:10.567Z,8.92
2017-03-19T02:36:21.594Z,8.92
2017-03-19T02:37:32.623Z,8.94
2017-03-19T02:38:43.700Z,8.95
2017-03-19T02:39:55.134Z,8.92
2017-03-19T02:41:06.163Z,8.95
2017-03-19T02:42:17.583Z,8.87
2017-03-19T02:43:28.620Z,8.9
2017-03-19T02:44:39.658Z,8.83
2017-03-19T02:45:50.687Z,8.92
2017-03-19T02:47:01.922Z,8.95
2017-03-19T02:48:12.943Z,9
2017-03-19T02:49:24.222Z,8.98
2017-03-19T02:50:35.293Z,9.01
2017-03-19T02:51:46.316Z,9.01
2017-03-19T02:52:57.550Z,8.97
2017-03-19T02:54:08.573Z,8.94
2017-03-19T02:55:19.856Z,8.98
2017-03-19T02:56:30.893Z,9.01
2017-03-19T02:57:42.333Z,8.98
2017-03-19T02:58:53.362Z,9.01
2017-03-19T03:00:04.607Z,8.98
2017-03-19T03:01:15.630Z,8.95
2017-03-19T03:02:26.654Z,8.98
2017-03-19T03:03:37.880Z,9
2017-03-19T03:04:48.907Z,9
2017-03-19T03:05:59.930Z,8.97
2017-03-19T03:07:11.209Z,8.94
2017-03-19T03:08:22.243Z,8.95
2017-03-19T03:09:33.473Z,9.01
2017-03-19T03:10:44.495Z,9.05
2017-03-19T03:11:55.519Z,9
2017-03-19T03:13:06.547Z,9.01
2017-03-19T03:14:17.777Z,8.97
2017-03-19T03:15:28.805Z,8.98
2017-03-19T03:16:40.105Z,9.01
2017-03-19T03:17:51.141Z,9.03
2017-03-19T03:19:02.188Z,9
2017-03-19T03:20:13.215Z,9.03
2017-03-19T03:21:24.460Z,9.03
2017-03-19T03:22:35.687Z,9.03
2017-03-19T03:23:46.922Z,9.03
2017-03-19T03:24:58.146Z,9.03
2017-03-19T03:26:09.165Z,8.94
2017-03-19T03:27:20.633Z,9.04
2017-03-19T03:28:31.666Z,8.95
2017-03-19T03:29:42.708Z,8.95
2017-03-19T03:30:53.735Z,8.95
2017-03-19T03:32:04.771Z,9.05
2017-03-19T03:33:15.800Z,8.95
2017-03-19T03:34:27.039Z,8.98
2017-03-19T03:35:38.069Z,8.97
2017-03-19T03:36:49.084Z,9.03
2017-03-19T03:38:00.164Z,9.08
2017-03-19T03:39:11.639Z,9.11
2017-03-19T03:40:22.665Z,9.09
2017-03-19T03:41:33.687Z,9.09
2017-03-19T03:42:44.718Z,9.09
2017-03-19T03:43:55.790Z,9.17
2017-03-19T03:45:06.817Z,9.14
2017-03-19T03:46:17.836Z,9.14
2017-03-19T03:47:28.858Z,9.14
2017-03-19T03:48:39.883Z,9.12
2017-03-19T03:49:51.151Z,9.12
2017-03-19T03:51:02.373Z,9.17
2017-03-19T03:52:13.401Z,9.21
2017-03-19T03:53:24.433Z,9.11
2017-03-19T03:54:35.517Z,9.16
2017-03-19T03:55:46.781Z,9.12
2017-03-19T03:56:57.795Z,9.09
2017-03-19T03:58:08.813Z,9.14
2017-03-19T03:59:19.841Z,9.21
2017-03-19T04:00:30.870Z,9.2
2017-03-19T04:01:41.898Z,9.17
2017-03-19T04:02:53.130Z,9.17
2017-03-19T04:04:04.164Z,9.19
2017-03-19T04:05:15.645Z,9.17
2017-03-19T04:06:26.677Z,9.16
2017-03-19T04:07:37.915Z,9.2
2017-03-19T04:08:48.951Z,9.14
2017-03-19T04:09:59.987Z,9.17
2017-03-19T04:11:11.218Z,9.09
2017-03-19T04:12:22.454Z,9.16
2017-03-19T04:13:33.499Z,9.2
2017-03-19T04:14:44.536Z,9.16
2017-03-19T04:15:55.856Z,9.17
2017-03-19T04:17:07.086Z,9.17
2017-03-19T04:18:18.318Z,9.19
2017-03-19T04:19:29.348Z,9.14
2017-03-19T04:20:40.586Z,9.08
2017-03-19T04:21:51.617Z,9.17
2017-03-19T04:23:02.849Z,9.14
2017-03-19T04:24:13.883Z,9.17
2017-03-19T04:25:24.922Z,9.21
2017-03-19T04:26:36.003Z,9.12
2017-03-19T04:27:47.235Z,9.12
2017-03-19T04:28:58.273Z,9.16
2017-03-19T04:30:09.497Z,9.19
2017-03-19T04:31:20.529Z,9.21
2017-03-19T04:32:31.558Z,9.21
2017-03-19T04:33:42.635Z,9.27
2017-03-19T04:34:53.663Z,9.32
2017-03-19T04:36:04.902Z,9.21
2017-03-19T04:37:15.927Z,9.27
2017-03-19T04:38:27.209Z,9.26
2017-03-19T04:39:38.251Z,9.27
2017-03-19T04:40:49.310Z,9.32
2017-03-19T04:42:00.336Z,9.34
2017-03-19T04:43:11.562Z,9.24
2017-03-19T04:44:22.584Z,9.27
2017-03-19T04:45:33.607Z,9.32
2017-03-19T04:46:44.636Z,9.3
2017-03-19T04:47:56.171Z,9.29
2017-03-19T04:49:07.207Z,9.32
2017-03-19T04:50:18.428Z,9.35
2017-03-19T04:51:29.663Z,9.35
2017-03-19T04:52:40.693Z,9.39
2017-03-19T04:53:51.730Z,9.39
2017-03-19T04:55:02.760Z,9.38
2017-03-19T04:56:13.790Z,9.39
2017-03-19T04:57:24.832Z,9.39
2017-03-19T04:58:35.918Z,9.37
2017-03-19T04:59:46.949Z,9.45
2017-03-19T05:00:57.977Z,9.47
2017-03-19T05:02:09.195Z,9.48
2017-03-19T05:03:20.425Z,9.47
2017-03-19T05:04:31.463Z,9.52
2017-03-19T05:05:42.690Z,9.48
2017-03-19T05:06:53.711Z,9.57
2017-03-19T05:08:04.742Z,9.55
2017-03-19T05:09:15.828Z,9.55
2017-03-19T05:10:26.859Z,9.59
2017-03-19T05:11:37.869Z,9.56
2017-03-19T05:12:48.887Z,9.56
2017-03-19T05:13:59.913Z,9.48
2017-03-19T05:15:11.141Z,9.45
2017-03-19T05:16:22.371Z,9.47
2017-03-19T05:17:33.410Z,9.56
2017-03-19T05:18:44.438Z,9.52
2017-03-19T05:19:55.469Z,9.5
2017-03-19T05:21:06.499Z,9.56
2017-03-19T05:22:17.521Z,9.6
2017-03-19T05:23:28.754Z,9.71
2017-03-19T05:24:39.788Z,9.66
2017-03-19T05:25:50.818Z,9.67
2017-03-19T05:27:01.904Z,9.56
2017-03-19T05:28:12.927Z,9.62
2017-03-19T05:29:23.969Z,9.71
2017-03-19T05:30:35.004Z,9.7
2017-03-19T05:31:46.223Z,9.88
2017-03-19T05:32:57.252Z,9.89
2017-03-19T05:34:08.280Z,9.75
2017-03-19T05:35:19.516Z,9.75
2017-03-19T05:36:30.589Z,9.88
2017-03-19T05:37:41.616Z,9.89
2017-03-19T05:38:52.651Z,9.78
2017-03-19T05:40:03.691Z,9.84
2017-03-19T05:41:14.922Z,9.88
2017-03-19T05:42:26.152Z,9.92
2017-03-19T05:43:37.196Z,9.95
2017-03-19T05:44:48.421Z,9.93
2017-03-19T05:45:59.447Z,9.99
2017-03-19T05:47:10.730Z,9.99
2017-03-19T05:48:21.772Z,10.03
2017-03-19T05:49:32.815Z,10.05
2017-03-19T05:50:43.838Z,10.14
2017-03-19T05:51:54.868Z,10.08
2017-03-19T05:53:05.900Z,10.03
2017-03-19T05:54:17.138Z,9.98
2017-03-19T05:55:28.201Z,10.13
2017-03-19T05:56:39.226Z,10.13
2017-03-19T05:57:50.301Z,10.13
2017-03-19T05:59:01.334Z,10.15
2017-03-19T06:00:12.369Z,10.14
2017-03-19T06:01:23.388Z,10.14
2017-03-19T06:02:34.424Z,10.25
2017-03-19T06:03:45.659Z,10.25
2017-03-19T06:04:56.702Z,10.35
2017-03-19T06:06:07.724Z,10.28
2017-03-19T06:07:18.753Z,10.14
2017-03-19T06:08:29.783Z,10.31
2017-03-19T06:09:40.812Z,10.28
2017-03-19T06:10:51.844Z,10.31
2017-03-19T06:12:02.866Z,10.33
2017-03-19T06:13:13.892Z,10.39
2017-03-19T06:14:25.205Z,10.29
2017-03-19T06:15:36.274Z,10.36
2017-03-19T06:16:47.307Z,10.46
2017-03-19T06:17:58.341Z,10.39
2017-03-19T06:19:09.393Z,10.28
2017-03-19T06:20:20.623Z,10.31
2017-03-19T06:21:31.652Z,10.42
2017-03-19T06:22:42.677Z,10.32
2017-03-19T06:23:53.710Z,10.35
2017-03-19T06:25:04.989Z,10.39
2017-03-19T06:26:16.015Z,10.44
2017-03-19T06:27:27.041Z,10.42
2017-03-19T06:28:38.083Z,10.52
2017-03-19T06:29:49.321Z,10.52
2017-03-19T06:31:00.348Z,10.52
2017-03-19T06:32:11.369Z,10.51
2017-03-19T06:33:22.392Z,10.46
2017-03-19T06:34:33.438Z,10.55
2017-03-19T06:35:44.523Z,10.58
2017-03-19T06:36:55.548Z,10.46
2017-03-19T06:38:06.774Z,10.55
2017-03-19T06:39:17.788Z,10.61
2017-03-19T06:40:29.017Z,10.65
2017-03-19T06:41:40.053Z,10.67
2017-03-19T06:42:51.086Z,10.65
2017-03-19T06:44:02.310Z,10.59
2017-03-19T06:45:13.545Z,10.61
2017-03-19T06:46:24.768Z,10.67
2017-03-19T06:47:35.798Z,10.61
2017-03-19T06:48:46.819Z,10.69
2017-03-19T06:49:57.845Z,10.69
2017-03-19T06:51:08.869Z,10.63
2017-03-19T06:52:19.893Z,10.7
2017-03-19T06:53:30.955Z,10.69
2017-03-19T06:54:41.994Z,10.67
2017-03-19T06:55:53.221Z,10.83
2017-03-19T06:57:04.299Z,10.67
2017-03-19T06:58:15.738Z,10.79
2017-03-19T06:59:26.763Z,10.7
2017-03-19T07:00:37.991Z,10.75
2017-03-19T07:01:49.044Z,10.8
2017-03-19T07:03:00.076Z,10.76
2017-03-19T07:04:11.103Z,10.77
2017-03-19T07:05:22.356Z,10.79
2017-03-19T07:06:33.585Z,10.73
2017-03-19T07:07:44.700Z,10.84
2017-03-19T07:08:55.730Z,10.77
2017-03-19T07:10:06.771Z,10.73
2017-03-19T07:11:17.800Z,10.76
2017-03-19T07:12:28.851Z,10.75
2017-03-19T07:13:39.881Z,10.83
2017-03-19T07:14:50.901Z,10.79
2017-03-19T07:16:01.936Z,10.8
2017-03-19T07:17:12.991Z,10.8
2017-03-19T07:18:24.066Z,10.79
2017-03-19T07:19:35.295Z,10.83
2017-03-19T07:20:46.349Z,10.87
2017-03-19T07:21:57.381Z,10.92
2017-03-19T07:23:08.617Z,10.84
2017-03-19T07:24:19.646Z,10.88
2017-03-19T07:25:30.681Z,10.94
2017-03-19T07:26:41.712Z,10.85
2017-03-19T07:27:52.748Z,10.92
2017-03-19T07:29:04.486Z,10.94
2017-03-19T07:30:15.524Z,10.9
2017-03-19T07:31:26.548Z,10.85
2017-03-19T07:32:37.590Z,10.83
2017-03-19T07:33:48.822Z,10.87
2017-03-19T07:34:59.856Z,10.92
2017-03-19T07:36:10.878Z,10.85
2017-03-19T07:37:21.916Z,10.88
2017-03-19T07:38:32.952Z,10.97
2017-03-19T07:39:44.029Z,10.91
2017-03-19T07:40:55.056Z,11
2017-03-19T07:42:06.079Z,10.9
2017-03-19T07:43:17.356Z,10.95
2017-03-19T07:44:28.400Z,11
2017-03-19T07:45:39.685Z,11.05
2017-03-19T07:46:50.703Z,11.09
2017-03-19T07:48:01.941Z,11.08
2017-03-19T07:49:12.971Z,11
2017-03-19T07:50:24.009Z,10.97
2017-03-19T07:51:35.042Z,10.94
2017-03-19T07:52:46.075Z,10.98
2017-03-19T07:53:57.101Z,11.09
2017-03-19T07:55:08.336Z,11.02
2017-03-19T07:56:19.415Z,11.03
2017-03-19T07:57:30.850Z,11.15
2017-03-19T07:58:42.091Z,11.08
2017-03-19T07:59:53.342Z,11.09
2017-03-19T08:01:04.373Z,11.09
2017-03-19T08:02:15.403Z,11.09
2017-03-19T08:03:26.465Z,11.13
2017-03-19T08:04:37.496Z,11.18
2017-03-19T08:05:48.727Z,11.15
2017-03-19T08:06:59.814Z,11.16
2017-03-19T08:08:10.847Z,11.18
2017-03-19T08:09:21.875Z,11.24
2017-03-19T08:10:32.888Z,11.2
2017-03-19T08:11:43.911Z,11.26
2017-03-19T08:12:54.943Z,11.28
2017-03-19T08:14:05.974Z,11.27
2017-03-19T08:15:17.006Z,11.2
2017-03-19T08:16:28.034Z,11.3
2017-03-19T08:17:39.112Z,11.27
2017-03-19T08:18:50.545Z,11.38
2017-03-19T08:20:01.578Z,11.23
2017-03-19T08:21:12.616Z,11.23
2017-03-19T08:22:23.644Z,11.26
2017-03-19T08:23:34.674Z,11.24
2017-03-19T08:24:46.108Z,11.27
2017-03-19T08:25:57.179Z,11.27
2017-03-19T08:27:08.202Z,11.27
2017-03-19T08:28:19.448Z,11.31
2017-03-19T08:29:30.538Z,11.18
2017-03-19T08:30:41.567Z,11.27
2017-03-19T08:31:52.794Z,11.27
2017-03-19T08:33:03.835Z,11.31
2017-03-19T08:34:14.873Z,11.31
2017-03-19T08:35:25.905Z,11.21
2017-03-19T08:36:37.134Z,11.18
2017-03-19T08:37:48.364Z,11.23
2017-03-19T08:38:59.441Z,11.3
2017-03-19T08:40:10.470Z,11.28
2017-03-19T08:41:21.530Z,11.35
2017-03-19T08:42:32.568Z,11.28
2017-03-19T08:43:43.814Z,11.38
2017-03-19T08:44:54.852Z,11.38
2017-03-19T08:46:05.877Z,11.41
2017-03-19T08:47:16.914Z,11.27
2017-03-19T08:48:27.945Z,11.33
2017-03-19T08:49:39.031Z,11.34
2017-03-19T08:50:50.096Z,11.39
2017-03-19T08:52:01.316Z,11.42
2017-03-19T08:53:12.554Z,11.35
2017-03-19T08:54:23.580Z,11.34
2017-03-19T08:55:34.612Z,11.34
2017-03-19T08:56:45.835Z,11.35
2017-03-19T08:57:57.062Z,11.34
2017-03-19T08:59:08.097Z,11.38
2017-03-19T09:00:19.127Z,11.45
2017-03-19T09:01:30.159Z,11.45
2017-03-19T09:02:41.194Z,11.46
2017-03-19T09:03:52.227Z,11.42
2017-03-19T09:05:03.315Z,11.46
2017-03-19T09:06:14.343Z,11.43
2017-03-19T09:07:25.365Z,11.48
2017-03-19T09:08:36.390Z,11.42
2017-03-19T09:09:47.436Z,11.46
2017-03-19T09:10:58.677Z,11.43
2017-03-19T09:12:09.700Z,11.48
2017-03-19T09:13:20.916Z,11.45
2017-03-19T09:14:31.939Z,11.43
2017-03-19T09:15:42.979Z,11.46
2017-03-19T09:16:54.052Z,11.49
2017-03-19T09:18:05.081Z,11.52
2017-03-19T09:19:16.314Z,11.48
2017-03-19T09:20:27.349Z,11.51
2017-03-19T09:21:38.579Z,11.43
2017-03-19T09:22:49.606Z,11.48
2017-03-19T09:24:00.643Z,11.51
2017-03-19T09:25:11.679Z,11.56
2017-03-19T09:26:22.760Z,11.6
2017-03-19T09:27:33.800Z,11.57
2017-03-19T09:28:44.835Z,11.46
2017-03-19T09:29:55.867Z,11.49
2017-03-19T09:31:06.902Z,11.59
2017-03-19T09:32:17.930Z,11.59
2017-03-19T09:33:29.163Z,11.52
2017-03-19T09:34:40.206Z,11.51
2017-03-19T09:35:51.235Z,11.53
2017-03-19T09:37:02.517Z,11.52
2017-03-19T09:38:13.552Z,11.56
2017-03-19T09:39:24.586Z,11.6
2017-03-19T09:40:35.632Z,11.57
2017-03-19T09:41:46.855Z,11.59
2017-03-19T09:42:57.901Z,11.6
2017-03-19T09:44:08.931Z,11.6
2017-03-19T09:45:19.964Z,11.63
2017-03-19T09:46:30.999Z,11.49
2017-03-19T09:47:42.081Z,11.66
2017-03-19T09:48:53.118Z,11.7
2017-03-19T09:50:04.351Z,11.6
2017-03-19T09:51:15.575Z,11.57
2017-03-19T09:52:26.813Z,11.53
2017-03-19T09:53:37.856Z,11.6
2017-03-19T09:54:48.891Z,11.57
2017-03-19T09:55:59.918Z,11.56
2017-03-19T09:57:10.947Z,11.67
2017-03-19T09:58:21.976Z,11.67
2017-03-19T09:59:33.012Z,11.7
2017-03-19T10:00:44.041Z,11.71
2017-03-19T10:01:55.097Z,11.76
2017-03-19T10:03:06.536Z,11.7
2017-03-19T10:04:17.632Z,11.79
2017-03-19T10:05:28.658Z,11.82
2017-03-19T10:06:39.914Z,11.79
2017-03-19T10:07:50.948Z,11.75
2017-03-19T10:09:01.979Z,11.78
2017-03-19T10:10:13.004Z,11.79
2017-03-19T10:11:24.043Z,11.78
2017-03-19T10:12:35.070Z,11.71
2017-03-19T10:13:46.311Z,11.78
2017-03-19T10:14:57.400Z,11.76
2017-03-19T10:16:08.848Z,11.85
2017-03-19T10:17:19.913Z,11.81
2017-03-19T10:18:30.954Z,11.86
2017-03-19T10:19:41.987Z,11.88
2017-03-19T10:20:53.023Z,11.85
2017-03-19T10:22:04.046Z,11.95
2017-03-19T10:23:15.079Z,11.95
2017-03-19T10:24:26.114Z,11.97
2017-03-19T10:25:37.393Z,11.98
2017-03-19T10:26:48.414Z,11.89
2017-03-19T10:27:59.476Z,11.94
2017-03-19T10:29:10.514Z,11.97
2017-03-19T10:30:21.569Z,11.94
2017-03-19T10:31:32.810Z,11.89
2017-03-19T10:32:43.846Z,11.91
2017-03-19T10:33:54.883Z,11.95
2017-03-19T10:35:05.917Z,11.88
2017-03-19T10:36:17.003Z,11.85
2017-03-19T10:37:28.241Z,11.82
2017-03-19T10:38:39.277Z,11.88
2017-03-19T10:39:50.301Z,11.94
2017-03-19T10:41:01.331Z,11.89
2017-03-19T10:42:12.559Z,12
2017-03-19T10:43:23.797Z,11.86
2017-03-19T10:44:34.834Z,11.95
2017-03-19T10:45:45.911Z,11.85
2017-03-19T10:46:57.149Z,11.89
2017-03-19T10:48:08.245Z,11.88
2017-03-19T10:49:19.287Z,11.94
2017-03-19T10:50:30.529Z,11.97
2017-03-19T10:51:41.974Z,11.89
2017-03-19T10:52:53.000Z,11.85
2017-03-19T10:54:04.032Z,11.95
2017-03-19T10:55:15.063Z,11.84
2017-03-19T10:56:26.123Z,11.88
2017-03-19T10:57:37.445Z,12
2017-03-19T10:58:48.488Z,11.94
2017-03-19T10:59:59.731Z,11.86
2017-03-19T11:01:10.757Z,11.98
2017-03-19T11:02:21.788Z,11.94
2017-03-19T11:03:33.231Z,11.95
2017-03-19T11:04:44.476Z,11.89
2017-03-19T11:05:55.504Z,11.91
2017-03-19T11:07:06.532Z,12.05
2017-03-19T11:08:17.614Z,12.01
2017-03-19T11:09:28.653Z,12.07
2017-03-19T11:10:39.679Z,12.04
2017-03-19T11:11:50.706Z,12.1
2017-03-19T11:13:01.971Z,12.08
2017-03-19T11:14:13.017Z,12.13
2017-03-19T11:15:24.251Z,12.13
2017-03-19T11:16:35.511Z,12.13
2017-03-19T11:17:46.552Z,12.08
2017-03-19T11:18:57.638Z,12.15
2017-03-19T11:20:08.869Z,12.1
2017-03-19T11:21:19.900Z,12.11
2017-03-19T11:22:31.134Z,12.18
2017-03-19T11:23:42.179Z,12.1
2017-03-19T11:24:53.509Z,12.19
2017-03-19T11:26:04.781Z,12.22
2017-03-19T11:27:16.017Z,12.16
2017-03-19T11:28:27.054Z,12.25
2017-03-19T11:29:38.086Z,12.26
2017-03-19T11:30:49.115Z,12.33
2017-03-19T11:32:00.339Z,12.36
2017-03-19T11:33:11.570Z,12.38
2017-03-19T11:34:22.623Z,12.47
2017-03-19T11:35:33.848Z,12.55
2017-03-19T11:36:44.876Z,12.45
2017-03-19T11:37:55.914Z,12.45
2017-03-19T11:39:06.950Z,12.55
2017-03-19T11:40:18.437Z,12.62
2017-03-19T11:41:29.467Z,12.62
2017-03-19T11:42:40.503Z,12.59
2017-03-19T11:43:51.743Z,12.58
2017-03-19T11:45:02.986Z,12.63
2017-03-19T11:46:14.011Z,12.59
2017-03-19T11:47:25.043Z,12.7
2017-03-19T11:48:36.075Z,12.69
2017-03-19T11:49:47.117Z,12.71
2017-03-19T11:50:58.205Z,12.77
2017-03-19T11:52:09.439Z,12.63
2017-03-19T11:53:20.473Z,12.7
2017-03-19T11:54:31.512Z,12.78
2017-03-19T11:55:42.545Z,12.73
2017-03-19T11:56:53.568Z,12.69
2017-03-19T11:58:04.642Z,12.8
2017-03-19T11:59:15.672Z,12.78
2017-03-19T12:00:26.725Z,12.81
2017-03-19T12:01:38.261Z,12.74
2017-03-19T12:02:49.494Z,12.74
2017-03-19T12:04:00.525Z,12.58
2017-03-19T12:05:11.754Z,12.63
2017-03-19T12:06:22.987Z,12.61
2017-03-19T12:07:34.111Z,12.59
2017-03-19T12:08:45.161Z,12.61
2017-03-19T12:09:56.401Z,12.51
2017-03-19T12:11:07.442Z,12.62
2017-03-19T12:12:18.473Z,12.58
2017-03-19T12:13:29.503Z,12.61
2017-03-19T12:14:40.536Z,12.61
2017-03-19T12:15:51.572Z,12.58
2017-03-19T12:17:02.611Z,12.58
2017-03-19T12:18:13.853Z,12.61
2017-03-19T12:19:25.137Z,12.58
2017-03-19T12:20:36.171Z,12.58
2017-03-19T12:21:47.198Z,12.59
2017-03-19T12:22:58.435Z,12.56
2017-03-19T12:24:09.475Z,12.58
2017-03-19T12:25:20.505Z,12.61
2017-03-19T12:26:31.525Z,12.59
2017-03-19T12:27:42.774Z,12.58
2017-03-19T12:28:54.257Z,12.59
2017-03-19T12:30:05.289Z,12.59
2017-03-19T12:31:16.315Z,12.61
2017-03-19T12:32:27.759Z,12.63
2017-03-19T12:33:38.993Z,12.55
2017-03-19T12:34:50.030Z,12.61
2017-03-19T12:36:01.062Z,12.55
2017-03-19T12:37:12.092Z,12.55
2017-03-19T12:38:23.160Z,12.55
2017-03-19T12:39:34.453Z,12.53
2017-03-19T12:40:45.485Z,12.55
2017-03-19T12:41:56.507Z,12.58
2017-03-19T12:43:07.544Z,12.44
2017-03-19T12:44:18.600Z,12.52
2017-03-19T12:45:29.633Z,12.56
2017-03-19T12:46:40.663Z,12.41
2017-03-19T12:47:51.697Z,12.43
2017-03-19T12:49:02.730Z,12.47
2017-03-19T12:50:13.812Z,12.41
2017-03-19T12:51:24.835Z,12.41
2017-03-19T12:52:35.856Z,12.36
2017-03-19T12:53:46.897Z,12.41
2017-03-19T12:54:57.939Z,12.31
2017-03-19T12:56:09.171Z,12.33
2017-03-19T12:57:20.202Z,12.29
2017-03-19T12:58:31.239Z,12.34
2017-03-19T12:59:42.473Z,12.25
2017-03-19T13:00:53.501Z,12.31
2017-03-19T13:02:04.533Z,12.29
2017-03-19T13:03:15.567Z,12.29
2017-03-19T13:04:26.606Z,12.33
2017-03-19T13:05:37.635Z,12.29
2017-03-19T13:06:48.669Z,12.36
2017-03-19T13:08:00.014Z,12.23
2017-03-19T13:09:11.057Z,12.33
2017-03-19T13:10:22.091Z,12.31
2017-03-19T13:11:33.113Z,12.26
2017-03-19T13:12:44.353Z,12.34
2017-03-19T13:13:55.428Z,12.29
2017-03-19T13:15:06.871Z,12.36
2017-03-19T13:16:17.893Z,12.43
2017-03-19T13:17:29.376Z,12.38
2017-03-19T13:18:40.605Z,12.4
2017-03-19T13:19:51.634Z,12.43
2017-03-19T13:21:02.659Z,12.45
2017-03-19T13:22:13.706Z,12.52
2017-03-19T13:23:24.737Z,12.86
2017-03-19T13:24:36.181Z,13.02
2017-03-19T13:25:47.201Z,13.14
2017-03-19T13:26:58.232Z,13.19
2017-03-19T13:28:09.950Z,13.35
2017-03-19T13:29:20.982Z,13.27
2017-03-19T13:30:32.017Z,13.28
2017-03-19T13:31:43.045Z,13.25
2017-03-19T13:32:54.077Z,13.24
2017-03-19T13:34:05.127Z,13.2
2017-03-19T13:35:16.168Z,13.14
2017-03-19T13:36:27.404Z,13.1
2017-03-19T13:37:38.440Z,13.1
2017-03-19T13:38:49.736Z,13.06
2017-03-19T13:40:00.787Z,13.02
2017-03-19T13:41:11.821Z,13.06
2017-03-19T13:42:23.053Z,13.03
2017-03-19T13:43:34.092Z,13.09
2017-03-19T13:44:45.335Z,13.06
2017-03-19T13:45:56.370Z,13.01
2017-03-19T13:47:07.604Z,12.98
2017-03-19T13:48:18.637Z,12.92
2017-03-19T13:49:29.669Z,12.98
2017-03-19T13:50:40.789Z,13.03
2017-03-19T13:51:51.822Z,13.03
2017-03-19T13:53:03.054Z,13.1
2017-03-19T13:54:14.089Z,13.1
2017-03-19T13:55:25.568Z,13.1
2017-03-19T13:56:36.599Z,13.1
2017-03-19T13:57:47.631Z,13.1
2017-03-19T13:58:58.683Z,13.02
2017-03-19T14:00:09.721Z,13.07
2017-03-19T14:01:20.750Z,13.01
2017-03-19T14:02:31.984Z,13.09
2017-03-19T14:03:43.032Z,12.96
2017-03-19T14:04:54.061Z,12.91
2017-03-19T14:06:05.351Z,12.91
2017-03-19T14:07:16.379Z,12.92
2017-03-19T14:08:27.408Z,12.91
2017-03-19T14:09:38.446Z,12.92
2017-03-19T14:10:49.472Z,12.94
2017-03-19T14:12:00.504Z,12.86
2017-03-19T14:13:11.546Z,12.84
2017-03-19T14:14:22.570Z,12.78
2017-03-19T14:15:33.598Z,12.89
2017-03-19T14:16:44.878Z,12.86
2017-03-19T14:17:55.919Z,12.96
2017-03-19T14:19:06.951Z,12.91
2017-03-19T14:20:17.971Z,13.06
2017-03-19T14:21:29.001Z,13.02
2017-03-19T14:22:40.038Z,13.09
2017-03-19T14:23:51.104Z,13.02
2017-03-19T14:25:02.351Z,13.07
2017-03-19T14:26:13.378Z,13.07
2017-03-19T14:27:24.658Z,13.11
2017-03-19T14:28:35.904Z,13.1
2017-03-19T14:29:47.136Z,13.11
2017-03-19T14:30:58.170Z,13.13
2017-03-19T14:32:09.401Z,13.09
2017-03-19T14:33:20.642Z,13.11
2017-03-19T14:34:31.890Z,13.07
2017-03-19T14:35:42.914Z,13.01
2017-03-19T14:36:54.135Z,13.07
2017-03-19T14:38:05.368Z,13.03
2017-03-19T14:39:16.664Z,13.01
2017-03-19T14:40:27.699Z,13.01
2017-03-19T14:41:38.727Z,13.06
2017-03-19T14:42:49.761Z,13.01
2017-03-19T14:44:00.845Z,13.07
2017-03-19T14:45:11.919Z,13.06
2017-03-19T14:46:22.969Z,13.06
2017-03-19T14:47:34.202Z,13.09
2017-03-19T14:48:45.289Z,13.1
2017-03-19T14:49:56.323Z,13.1
2017-03-19T14:51:07.553Z,13.07
2017-03-19T14:52:18.579Z,13.07
2017-03-19T14:53:29.626Z,13.06
2017-03-19T14:54:40.656Z,13.09
2017-03-19T14:55:51.893Z,12.96
2017-03-19T14:57:02.930Z,13.09
2017-03-19T14:58:13.974Z,13.06
2017-03-19T14:59:25.070Z,13.02
2017-03-19T15:00:36.102Z,13.03
2017-03-19T15:01:47.128Z,13.01
2017-03-19T15:02:58.402Z,13.01
2017-03-19T15:04:09.440Z,13.06
2017-03-19T15:05:20.464Z,13.02
2017-03-19T15:06:31.494Z,13.07
2017-03-19T15:07:42.726Z,13.1
2017-03-19T15:08:53.962Z,13.09
2017-03-19T15:10:05.244Z,13.07
2017-03-19T15:11:16.275Z,13.11
2017-03-19T15:12:27.309Z,13.09
2017-03-19T15:13:38.342Z,13.03
2017-03-19T15:14:49.618Z,13.03
2017-03-19T15:16:00.861Z,13.03
2017-03-19T15:17:11.883Z,13.02
2017-03-19T15:18:23.128Z,12.99
2017-03-19T15:19:34.155Z,13.09
2017-03-19T15:20:45.181Z,13.06
2017-03-19T15:21:56.210Z,12.95
2017-03-19T15:23:07.287Z,12.99
2017-03-19T15:24:18.326Z,12.99
2017-03-19T15:25:29.360Z,12.86
2017-03-19T15:26:40.394Z,12.88
2017-03-19T15:27:51.431Z,12.95
2017-03-19T15:29:02.665Z,12.96
2017-03-19T15:30:13.698Z,12.84
2017-03-19T15:31:24.980Z,12.89